Time;durP1;ratioP1;P1;durP2;ratioP2;P2;SDS_P1;SDS_P2;PMS_P1;PMS_P2;Temp;Humidity;BMP_temperature;BMP_pressure;BME280_temperature;BME280_humidity;BME280_pressure;Samples;Min_cycle;Max_cycle;Signal;HPM_P1;HPM_P2
2022/12/07 00:00:19;;;;;;;;;;;21.40;36.90;;;;;;464733;256;1492;-43
2022/12/07 00:02:20;;;;;;;;;;;21.40;37.00;;;;;;464672;256;1873;-44
2022/12/07 00:04:22;;;;;;;;;;;21.40;36.90;;;;;;465109;256;1389;-44
2022/12/07 00:06:23;;;;;;;;;;;21.50;36.90;;;;;;464819;256;1386;-41
2022/12/07 00:08:24;;;;;;;;;;;21.40;36.90;;;;;;464794;256;1270;-44
2022/12/07 00:10:26;;;;;;;;;;;21.40;37.00;;;;;;464789;256;1297;-43
2022/12/07 00:12:27;;;;;;;;;;;21.40;36.90;;;;;;464951;256;1698;-42
2022/12/07 00:14:29;;;;;;;;;;;21.40;36.90;;;;;;464690;256;1283;-44
2022/12/07 00:16:30;;;;;;;;;;;21.40;37.00;;;;;;464829;256;1969;-44
2022/12/07 00:18:32;;;;;;;;;;;21.40;37.00;;;;;;464660;256;2202;-44
2022/12/07 00:20:33;;;;;;;;;;;21.30;37.00;;;;;;464738;256;1378;-44
2022/12/07 00:22:35;;;;;;;;;;;21.40;37.10;;;;;;464877;256;1764;-43
2022/12/07 00:24:36;;;;;;;;;;;21.40;37.10;;;;;;464922;256;1291;-44
2022/12/07 00:26:37;;;;;;;;;;;21.40;37.10;;;;;;464914;256;1940;-42
2022/12/07 00:28:39;;;;;;;;;;;21.40;37.00;;;;;;464765;256;1233;-44
2022/12/07 00:30:40;;;;;;;;;;;21.40;37.00;;;;;;464950;256;1190;-44
2022/12/07 00:32:41;;;;;;;;;;;21.40;37.00;;;;;;464746;256;1253;-41
2022/12/07 00:34:44;;;;;;;;;;;21.40;36.90;;;;;;464707;256;1482;-44
2022/12/07 00:36:45;;;;;;;;;;;21.40;36.90;;;;;;465060;256;1250;-41
2022/12/07 00:38:47;;;;;;;;;;;21.40;37.00;;;;;;464754;256;2158;-43
2022/12/07 00:40:48;;;;;;;;;;;21.40;37.00;;;;;;464842;256;1311;-44
2022/12/07 00:42:49;;;;;;;;;;;21.50;36.90;;;;;;464775;256;1378;-44
2022/12/07 00:44:50;;;;;;;;;;;21.40;36.90;;;;;;464859;256;1188;-43
2022/12/07 00:46:52;;;;;;;;;;;21.40;37.00;;;;;;465096;256;1297;-41
2022/12/07 00:48:53;;;;;;;;;;;21.40;37.10;;;;;;464727;256;1338;-44
2022/12/07 00:50:54;;;;;;;;;;;21.50;36.90;;;;;;464770;256;1226;-44
2022/12/07 00:52:56;;;;;;;;;;;21.50;37.00;;;;;;464675;256;1256;-43
2022/12/07 00:54:57;;;;;;;;;;;21.40;37.00;;;;;;464914;256;1560;-43
2022/12/07 00:56:59;;;;;;;;;;;21.40;37.00;;;;;;464959;256;2183;-44
2022/12/07 00:59:01;;;;;;;;;;;21.40;37.00;;;;;;464805;256;1441;-40
2022/12/07 01:01:02;;;;;;;;;;;21.40;37.00;;;;;;464795;256;1262;-43
2022/12/07 01:03:04;;;;;;;;;;;21.30;37.00;;;;;;464786;256;1368;-44
2022/12/07 01:05:05;;;;;;;;;;;21.30;37.10;;;;;;464973;256;1606;-43
2022/12/07 01:07:06;;;;;;;;;;;21.40;37.10;;;;;;464832;256;1294;-44
2022/12/07 01:09:08;;;;;;;;;;;21.30;37.10;;;;;;464801;256;1268;-43
2022/12/07 01:11:09;;;;;;;;;;;21.40;37.10;;;;;;465142;256;3423;-44
2022/12/07 01:13:10;;;;;;;;;;;21.40;37.00;;;;;;465138;256;1273;-44
2022/12/07 01:15:12;;;;;;;;;;;21.40;37.00;;;;;;465127;256;1343;-44
2022/12/07 01:17:13;;;;;;;;;;;21.40;37.00;;;;;;465195;256;2206;-43
2022/12/07 01:19:14;;;;;;;;;;;21.30;37.10;;;;;;465225;256;1258;-44
2022/12/07 01:21:16;;;;;;;;;;;21.40;37.10;;;;;;465034;256;1394;-43
2022/12/07 01:23:17;;;;;;;;;;;21.40;37.00;;;;;;465016;256;1787;-44
2022/12/07 01:25:18;;;;;;;;;;;21.40;37.10;;;;;;464989;256;1298;-42
2022/12/07 01:27:20;;;;;;;;;;;21.40;37.10;;;;;;464844;256;1212;-43
2022/12/07 01:29:21;;;;;;;;;;;21.30;37.10;;;;;;464829;256;1250;-44
2022/12/07 01:31:22;;;;;;;;;;;21.30;37.10;;;;;;464903;256;1214;-44
2022/12/07 01:33:24;;;;;;;;;;;21.40;37.10;;;;;;464979;256;1421;-41
2022/12/07 01:35:25;;;;;;;;;;;21.40;37.10;;;;;;464852;256;1326;-44
2022/12/07 01:37:27;;;;;;;;;;;21.50;37.00;;;;;;464708;256;2206;-44
2022/12/07 01:39:28;;;;;;;;;;;21.60;36.70;;;;;;464818;256;1280;-41
2022/12/07 01:41:29;;;;;;;;;;;21.90;36.40;;;;;;464773;256;1222;-44
2022/12/07 01:43:31;;;;;;;;;;;22.00;36.00;;;;;;465106;256;1450;-44
2022/12/07 01:45:32;;;;;;;;;;;22.20;35.80;;;;;;464881;256;1338;-44
2022/12/07 01:47:33;;;;;;;;;;;22.30;35.50;;;;;;465124;256;1405;-44
2022/12/07 01:49:34;;;;;;;;;;;22.40;35.40;;;;;;464761;256;1412;-44
2022/12/07 01:51:36;;;;;;;;;;;22.50;35.30;;;;;;464723;256;1345;-43
2022/12/07 01:53:38;;;;;;;;;;;22.50;35.30;;;;;;464840;256;1309;-40
2022/12/07 01:55:39;;;;;;;;;;;22.50;35.20;;;;;;465153;256;1301;-41
2022/12/07 01:57:40;;;;;;;;;;;22.40;35.30;;;;;;465104;256;2166;-43
2022/12/07 01:59:42;;;;;;;;;;;22.20;35.50;;;;;;464740;256;1425;-44
2022/12/07 02:01:43;;;;;;;;;;;22.10;35.70;;;;;;464706;256;1813;-41
2022/12/07 02:03:44;;;;;;;;;;;22.00;35.90;;;;;;464700;256;1548;-44
2022/12/07 02:05:46;;;;;;;;;;;22.00;36.20;;;;;;464786;256;1438;-44
2022/12/07 02:07:47;;;;;;;;;;;21.90;36.30;;;;;;464826;256;1493;-43
2022/12/07 02:09:48;;;;;;;;;;;21.90;36.30;;;;;;464783;256;1321;-44
2022/12/07 02:11:50;;;;;;;;;;;21.80;36.40;;;;;;464810;256;1337;-44
2022/12/07 02:13:51;;;;;;;;;;;21.70;36.60;;;;;;464708;256;1607;-44
2022/12/07 02:15:52;;;;;;;;;;;21.70;36.60;;;;;;464888;256;1747;-40
2022/12/07 02:17:54;;;;;;;;;;;21.70;36.70;;;;;;465043;256;2167;-42
2022/12/07 02:19:55;;;;;;;;;;;21.70;36.70;;;;;;465073;256;1337;-44
2022/12/07 02:21:56;;;;;;;;;;;21.70;36.70;;;;;;464695;256;1436;-44
2022/12/07 02:23:59;;;;;;;;;;;21.70;36.70;;;;;;464952;256;1460;-43
2022/12/07 02:25:59;;;;;;;;;;;21.60;36.60;;;;;;464698;256;2445;-43
2022/12/07 02:28:01;;;;;;;;;;;21.60;36.70;;;;;;464765;256;1309;-44
2022/12/07 02:30:02;;;;;;;;;;;21.60;36.80;;;;;;465172;256;1258;-43
2022/12/07 02:32:04;;;;;;;;;;;21.60;36.80;;;;;;464864;256;2866;-42
2022/12/07 02:34:05;;;;;;;;;;;21.60;36.80;;;;;;465117;256;1310;-43
2022/12/07 02:36:06;;;;;;;;;;;21.50;36.80;;;;;;464761;256;1212;-44
2022/12/07 02:38:08;;;;;;;;;;;21.60;36.90;;;;;;465093;256;2155;-44
2022/12/07 02:40:09;;;;;;;;;;;21.50;36.90;;;;;;464746;256;2173;-43
2022/12/07 02:42:10;;;;;;;;;;;21.50;36.90;;;;;;464859;256;1303;-44
2022/12/07 02:44:13;;;;;;;;;;;21.50;37.00;;;;;;464724;256;1272;-44
2022/12/07 02:46:14;;;;;;;;;;;21.50;36.90;;;;;;464724;256;1351;-42
2022/12/07 02:48:15;;;;;;;;;;;21.60;36.90;;;;;;465088;256;1277;-43
2022/12/07 02:50:17;;;;;;;;;;;21.50;36.80;;;;;;464758;256;1651;-44
2022/12/07 02:52:18;;;;;;;;;;;21.50;37.00;;;;;;464762;256;1239;-44
2022/12/07 02:54:19;;;;;;;;;;;21.50;37.00;;;;;;464858;256;1266;-44
2022/12/07 02:56:21;;;;;;;;;;;21.70;36.80;;;;;;464779;256;1254;-44
2022/12/07 02:58:22;;;;;;;;;;;21.90;36.40;;;;;;464773;256;2366;-41
2022/12/07 03:00:24;;;;;;;;;;;22.10;36.10;;;;;;464934;256;1281;-44
2022/12/07 03:02:25;;;;;;;;;;;22.20;35.70;;;;;;464832;256;1308;-44
2022/12/07 03:04:26;;;;;;;;;;;22.40;35.60;;;;;;464882;256;1495;-44
2022/12/07 03:06:28;;;;;;;;;;;22.40;35.40;;;;;;464720;256;1243;-41
2022/12/07 03:08:29;;;;;;;;;;;22.50;35.40;;;;;;464693;256;1376;-43
2022/12/07 03:10:30;;;;;;;;;;;22.50;35.40;;;;;;464765;256;1402;-43
2022/12/07 03:12:32;;;;;;;;;;;22.30;35.60;;;;;;464866;256;1450;-43
2022/12/07 03:14:33;;;;;;;;;;;22.20;35.80;;;;;;464813;256;1245;-43
2022/12/07 03:16:35;;;;;;;;;;;22.00;36.00;;;;;;464772;256;1325;-44
2022/12/07 03:18:36;;;;;;;;;;;22.00;36.20;;;;;;464665;256;2167;-44
2022/12/07 03:20:37;;;;;;;;;;;21.90;36.30;;;;;;464700;256;1233;-43
2022/12/07 03:22:38;;;;;;;;;;;21.80;36.50;;;;;;464732;256;1406;-44
2022/12/07 03:24:40;;;;;;;;;;;21.80;36.50;;;;;;464729;256;1261;-42
2022/12/07 03:26:41;;;;;;;;;;;21.80;36.60;;;;;;464990;256;1242;-44
2022/12/07 03:28:43;;;;;;;;;;;21.70;36.60;;;;;;464843;256;1267;-44
2022/12/07 03:30:44;;;;;;;;;;;21.70;36.70;;;;;;464862;256;1214;-43
2022/12/07 03:32:45;;;;;;;;;;;21.70;36.70;;;;;;464837;256;1229;-44
2022/12/07 03:34:47;;;;;;;;;;;21.60;36.70;;;;;;464904;256;1277;-44
2022/12/07 03:36:49;;;;;;;;;;;21.60;36.80;;;;;;464791;256;1296;-44
2022/12/07 03:38:51;;;;;;;;;;;21.60;36.80;;;;;;464974;256;2199;-43
2022/12/07 03:40:52;;;;;;;;;;;21.60;36.80;;;;;;464765;256;1259;-43
2022/12/07 03:42:53;;;;;;;;;;;21.60;36.90;;;;;;464774;256;1264;-44
2022/12/07 03:44:55;;;;;;;;;;;21.60;36.90;;;;;;464803;256;1541;-44
2022/12/07 03:46:56;;;;;;;;;;;21.60;36.90;;;;;;464830;256;1390;-41
2022/12/07 03:48:58;;;;;;;;;;;21.60;36.90;;;;;;465155;256;1241;-44
2022/12/07 03:50:59;;;;;;;;;;;21.50;36.90;;;;;;464763;256;1746;-44
2022/12/07 03:53:01;;;;;;;;;;;21.50;36.90;;;;;;464743;256;1727;-43
2022/12/07 03:55:02;;;;;;;;;;;21.60;37.00;;;;;;464800;256;1196;-43
2022/12/07 03:57:04;;;;;;;;;;;21.50;36.90;;;;;;465069;256;1329;-43
2022/12/07 03:59:05;;;;;;;;;;;21.50;37.00;;;;;;465093;256;2174;-44
2022/12/07 04:01:06;;;;;;;;;;;21.50;37.00;;;;;;464954;256;1862;-44
2022/12/07 04:03:07;;;;;;;;;;;21.60;37.00;;;;;;464964;256;1269;-41
2022/12/07 04:05:09;;;;;;;;;;;21.50;37.00;;;;;;465133;256;1235;-44
2022/12/07 04:07:11;;;;;;;;;;;21.50;37.00;;;;;;464729;256;1622;-43
2022/12/07 04:09:14;;;;;;;;;;;21.50;37.00;;;;;;464757;256;1782;-44
2022/12/07 04:11:13;;;;;;;;;;;21.50;37.00;;;;;;464630;256;2142;-44
2022/12/07 04:13:15;;;;;;;;;;;21.50;37.00;;;;;;464762;256;1301;-41
2022/12/07 04:15:16;;;;;;;;;;;21.50;37.00;;;;;;464801;256;1467;-43
2022/12/07 04:17:17;;;;;;;;;;;21.50;37.10;;;;;;464899;256;1257;-41
2022/12/07 04:19:19;;;;;;;;;;;21.50;37.10;;;;;;464830;256;2212;-43
2022/12/07 04:21:20;;;;;;;;;;;21.50;37.00;;;;;;464771;256;1339;-42
2022/12/07 04:23:21;;;;;;;;;;;21.60;36.90;;;;;;465168;256;1290;-41
2022/12/07 04:25:23;;;;;;;;;;;21.60;37.00;;;;;;464871;256;1216;-40
2022/12/07 04:27:24;;;;;;;;;;;21.60;36.90;;;;;;465160;256;1252;-43
2022/12/07 04:29:25;;;;;;;;;;;21.50;37.00;;;;;;465161;256;1420;-44
2022/12/07 04:31:27;;;;;;;;;;;21.50;37.10;;;;;;465081;256;1226;-43
2022/12/07 04:33:28;;;;;;;;;;;21.40;37.10;;;;;;464937;256;1494;-44
2022/12/07 04:35:30;;;;;;;;;;;21.50;37.10;;;;;;464790;256;1350;-44
2022/12/07 04:37:31;;;;;;;;;;;21.50;37.10;;;;;;464864;256;1244;-44
2022/12/07 04:39:32;;;;;;;;;;;21.50;37.10;;;;;;464995;256;2217;-44
2022/12/07 04:41:34;;;;;;;;;;;21.50;37.10;;;;;;464887;256;1375;-44
2022/12/07 04:43:36;;;;;;;;;;;21.50;37.10;;;;;;464766;256;1271;-44
2022/12/07 04:45:37;;;;;;;;;;;21.50;37.10;;;;;;465030;256;1549;-43
2022/12/07 04:47:38;;;;;;;;;;;21.50;37.10;;;;;;464687;256;1758;-43
2022/12/07 04:49:40;;;;;;;;;;;21.40;37.10;;;;;;464790;256;1688;-44
2022/12/07 04:51:41;;;;;;;;;;;21.60;37.10;;;;;;464739;256;1347;-41
2022/12/07 04:53:42;;;;;;;;;;;21.80;36.70;;;;;;464728;256;1238;-40
2022/12/07 04:55:44;;;;;;;;;;;22.00;36.40;;;;;;464779;256;1253;-41
2022/12/07 04:57:45;;;;;;;;;;;22.20;36.00;;;;;;465049;256;1458;-43
2022/12/07 04:59:46;;;;;;;;;;;22.30;35.80;;;;;;464933;256;2170;-44
2022/12/07 05:01:48;;;;;;;;;;;22.40;35.60;;;;;;465026;256;1305;-43
2022/12/07 05:03:49;;;;;;;;;;;22.40;35.50;;;;;;464938;256;1187;-43
2022/12/07 05:05:50;;;;;;;;;;;22.40;35.50;;;;;;464708;256;1320;-42
2022/12/07 05:07:52;;;;;;;;;;;22.30;35.60;;;;;;465198;256;1309;-44
2022/12/07 05:09:53;;;;;;;;;;;22.20;35.90;;;;;;465047;256;1360;-43
2022/12/07 05:11:54;;;;;;;;;;;22.00;36.00;;;;;;464722;256;1245;-43
2022/12/07 05:13:56;;;;;;;;;;;22.00;36.30;;;;;;464798;256;1251;-43
2022/12/07 05:15:57;;;;;;;;;;;21.90;36.40;;;;;;464716;256;1258;-44
2022/12/07 05:17:58;;;;;;;;;;;21.80;36.50;;;;;;464796;256;1215;-44
2022/12/07 05:20:00;;;;;;;;;;;21.80;36.60;;;;;;464867;256;2202;-41
2022/12/07 05:22:01;;;;;;;;;;;21.70;36.60;;;;;;464933;256;1211;-44
2022/12/07 05:24:03;;;;;;;;;;;21.70;36.70;;;;;;465098;256;1703;-44
2022/12/07 05:26:04;;;;;;;;;;;21.70;36.80;;;;;;464954;256;1891;-41
2022/12/07 05:28:06;;;;;;;;;;;21.70;36.80;;;;;;465208;256;1608;-44
2022/12/07 05:30:07;;;;;;;;;;;21.70;36.90;;;;;;464774;253;1321;-44
2022/12/07 05:32:08;;;;;;;;;;;21.60;36.80;;;;;;464928;256;1315;-43
2022/12/07 05:34:09;;;;;;;;;;;21.60;36.80;;;;;;464895;256;1198;-41
2022/12/07 05:36:11;;;;;;;;;;;21.60;36.90;;;;;;465019;256;1217;-44
2022/12/07 05:38:12;;;;;;;;;;;21.60;37.00;;;;;;464995;256;1226;-43
2022/12/07 05:40:14;;;;;;;;;;;21.60;37.00;;;;;;465095;256;2210;-44
2022/12/07 05:42:16;;;;;;;;;;;21.50;37.00;;;;;;464942;256;1234;-44
2022/12/07 05:44:16;;;;;;;;;;;21.60;37.00;;;;;;464871;256;1934;-44
2022/12/07 05:46:18;;;;;;;;;;;21.70;36.80;;;;;;464668;256;1351;-44
2022/12/07 05:48:19;;;;;;;;;;;21.90;36.40;;;;;;464739;256;1295;-44
2022/12/07 05:50:20;;;;;;;;;;;22.10;36.10;;;;;;464919;256;1276;-44
2022/12/07 05:52:22;;;;;;;;;;;22.30;35.80;;;;;;464662;256;1231;-44
2022/12/07 05:54:23;;;;;;;;;;;22.40;35.60;;;;;;464627;256;1261;-44
2022/12/07 05:56:24;;;;;;;;;;;22.40;35.50;;;;;;464782;256;1694;-44
2022/12/07 06:00:45;;;;;;;;;;;22.30;35.60;;;;;;464819;256;1284;-41
2022/12/07 06:02:46;;;;;;;;;;;22.20;35.90;;;;;;464777;256;1447;-44
2022/12/07 06:04:47;;;;;;;;;;;22.10;36.00;;;;;;464808;256;1256;-44
2022/12/07 06:06:49;;;;;;;;;;;22.00;36.10;;;;;;464728;256;1267;-44
2022/12/07 06:08:50;;;;;;;;;;;22.00;36.30;;;;;;464767;256;1392;-44
2022/12/07 06:12:33;;;;;;;;;;;21.90;36.40;;;;;;464776;256;1287;-43
2022/12/07 06:12:53;;;;;;;;;;;21.90;36.50;;;;;;463464;256;1389;-40
2022/12/07 06:14:55;;;;;;;;;;;21.80;36.50;;;;;;464947;256;1281;-44
2022/12/07 06:16:56;;;;;;;;;;;21.80;36.60;;;;;;464698;256;1299;-44
2022/12/07 06:18:58;;;;;;;;;;;21.80;36.60;;;;;;464710;256;2194;-44
2022/12/07 06:20:59;;;;;;;;;;;22.00;36.50;;;;;;464614;256;3231;-44
2022/12/07 06:23:00;;;;;;;;;;;22.10;36.20;;;;;;464693;256;1292;-44
2022/12/07 06:25:02;;;;;;;;;;;22.30;35.80;;;;;;464780;256;1234;-44
2022/12/07 06:27:03;;;;;;;;;;;22.50;35.60;;;;;;464663;256;1255;-44
2022/12/07 06:29:04;;;;;;;;;;;22.50;35.50;;;;;;464588;256;1344;-44
2022/12/07 06:31:06;;;;;;;;;;;22.50;35.40;;;;;;464916;256;1278;-44
2022/12/07 06:33:07;;;;;;;;;;;22.40;35.60;;;;;;464680;256;1264;-44
2022/12/07 06:35:09;;;;;;;;;;;22.30;35.80;;;;;;464919;256;1722;-44
2022/12/07 06:37:10;;;;;;;;;;;22.20;36.00;;;;;;464769;256;1256;-44
2022/12/07 06:39:12;;;;;;;;;;;22.10;36.10;;;;;;464794;256;2171;-44
2022/12/07 06:41:13;;;;;;;;;;;22.00;36.20;;;;;;464726;256;1292;-44
2022/12/07 06:43:14;;;;;;;;;;;22.00;36.30;;;;;;464676;256;1750;-44
2022/12/07 06:45:16;;;;;;;;;;;21.90;36.40;;;;;;464722;256;1313;-44
2022/12/07 06:47:18;;;;;;;;;;;21.80;36.50;;;;;;464657;256;1191;-43
2022/12/07 06:49:19;;;;;;;;;;;21.90;36.70;;;;;;464622;256;1261;-44
2022/12/07 06:51:20;;;;;;;;;;;21.80;36.60;;;;;;464705;256;1213;-44
2022/12/07 06:53:22;;;;;;;;;;;21.80;36.70;;;;;;464572;256;1274;-44
2022/12/07 06:55:26;;;;;;;;;;;21.80;36.70;;;;;;464686;256;1314;-44
2022/12/07 06:57:28;;;;;;;;;;;21.80;36.80;;;;;;464447;256;3557;-43
2022/12/07 06:59:29;;;;;;;;;;;21.70;36.80;;;;;;464607;256;2182;-44
2022/12/07 07:01:30;;;;;;;;;;;21.70;36.90;;;;;;464484;256;1817;-44
2022/12/07 07:03:31;;;;;;;;;;;21.70;36.90;;;;;;464620;256;1325;-44
2022/12/07 07:05:33;;;;;;;;;;;21.70;36.80;;;;;;464559;256;1552;-44
2022/12/07 07:07:35;;;;;;;;;;;21.70;36.90;;;;;;464723;256;1222;-44
2022/12/07 07:09:36;;;;;;;;;;;21.70;36.90;;;;;;464578;256;1551;-40
2022/12/07 07:11:37;;;;;;;;;;;21.60;36.90;;;;;;464872;256;1301;-44
2022/12/07 07:13:39;;;;;;;;;;;21.70;36.90;;;;;;464732;256;1244;-42
2022/12/07 07:15:40;;;;;;;;;;;21.60;36.90;;;;;;464887;256;1247;-44
2022/12/07 07:17:42;;;;;;;;;;;21.60;36.90;;;;;;464728;256;1219;-44
2022/12/07 07:19:43;;;;;;;;;;;21.60;36.90;;;;;;464546;256;2194;-44
2022/12/07 07:21:44;;;;;;;;;;;21.60;36.90;;;;;;464746;256;1333;-41
2022/12/07 07:23:46;;;;;;;;;;;21.70;36.80;;;;;;464618;256;1245;-44
2022/12/07 07:25:47;;;;;;;;;;;21.70;36.80;;;;;;464719;256;1267;-44
2022/12/07 07:27:49;;;;;;;;;;;21.70;36.70;;;;;;464699;256;1250;-43
2022/12/07 07:29:50;;;;;;;;;;;21.70;36.80;;;;;;464665;256;1351;-41
2022/12/07 07:31:52;;;;;;;;;;;21.70;36.80;;;;;;464645;256;1271;-43
2022/12/07 07:33:53;;;;;;;;;;;21.60;36.70;;;;;;464920;256;1202;-44
2022/12/07 07:35:54;;;;;;;;;;;21.70;36.80;;;;;;464646;256;1466;-44
2022/12/07 07:37:55;;;;;;;;;;;21.60;36.70;;;;;;464706;256;1234;-44
2022/12/07 07:39:57;;;;;;;;;;;21.70;36.70;;;;;;464817;256;2210;-43
2022/12/07 07:41:59;;;;;;;;;;;21.60;36.70;;;;;;464721;256;1203;-44
2022/12/07 07:44:00;;;;;;;;;;;21.70;36.70;;;;;;464620;256;1249;-44
2022/12/07 07:46:01;;;;;;;;;;;21.70;36.60;;;;;;464835;256;1241;-44
2022/12/07 07:48:03;;;;;;;;;;;21.70;36.70;;;;;;464596;256;1701;-44
2022/12/07 07:50:04;;;;;;;;;;;21.70;36.60;;;;;;464659;256;1236;-44
2022/12/07 07:52:05;;;;;;;;;;;21.70;36.70;;;;;;464578;256;1429;-44
2022/12/07 07:54:07;;;;;;;;;;;21.70;36.60;;;;;;464653;256;1281;-44
2022/12/07 07:56:08;;;;;;;;;;;21.70;36.60;;;;;;464462;256;1327;-43
2022/12/07 07:58:10;;;;;;;;;;;21.70;36.50;;;;;;464676;256;1306;-43
2022/12/07 08:00:11;;;;;;;;;;;21.70;36.60;;;;;;464641;256;2170;-44
2022/12/07 08:02:13;;;;;;;;;;;21.70;36.60;;;;;;464575;256;1742;-43
2022/12/07 08:04:14;;;;;;;;;;;21.60;36.50;;;;;;464328;256;1407;-41
2022/12/07 08:06:15;;;;;;;;;;;21.70;36.60;;;;;;464478;256;1217;-44
2022/12/07 08:08:17;;;;;;;;;;;21.70;36.50;;;;;;464205;256;1521;-44
2022/12/07 08:10:18;;;;;;;;;;;21.70;36.50;;;;;;464103;256;1268;-44
2022/12/07 08:12:19;;;;;;;;;;;21.70;36.50;;;;;;464396;256;1384;-42
2022/12/07 08:14:21;;;;;;;;;;;21.70;36.50;;;;;;464330;256;1418;-44
2022/12/07 08:16:22;;;;;;;;;;;21.70;36.50;;;;;;464265;256;1267;-43
2022/12/07 08:18:23;;;;;;;;;;;21.70;36.50;;;;;;464093;256;1511;-44
2022/12/07 08:20:25;;;;;;;;;;;21.70;36.50;;;;;;464039;256;2210;-43
2022/12/07 08:22:26;;;;;;;;;;;21.70;36.50;;;;;;464263;256;1327;-43
2022/12/07 08:24:28;;;;;;;;;;;21.70;36.60;;;;;;464347;256;1314;-41
2022/12/07 08:26:29;;;;;;;;;;;21.60;36.50;;;;;;464273;256;1348;-44
2022/12/07 08:28:30;;;;;;;;;;;21.70;36.50;;;;;;464267;256;1365;-40
2022/12/07 08:30:32;;;;;;;;;;;21.70;36.50;;;;;;464423;256;1299;-43
2022/12/07 08:32:33;;;;;;;;;;;21.70;36.50;;;;;;464373;256;2963;-43
2022/12/07 08:34:35;;;;;;;;;;;21.70;36.50;;;;;;464358;256;1357;-44
2022/12/07 08:36:36;;;;;;;;;;;21.70;36.50;;;;;;464250;256;2230;-44
2022/12/07 08:38:37;;;;;;;;;;;21.70;36.40;;;;;;464409;256;1273;-44
2022/12/07 08:40:38;;;;;;;;;;;21.70;36.50;;;;;;464422;256;2194;-44
2022/12/07 08:42:40;;;;;;;;;;;21.70;36.50;;;;;;464379;256;1313;-44
2022/12/07 08:44:41;;;;;;;;;;;21.60;36.50;;;;;;464319;256;1233;-44
2022/12/07 08:46:42;;;;;;;;;;;21.70;36.50;;;;;;464255;256;1264;-44
2022/12/07 08:48:44;;;;;;;;;;;21.60;36.40;;;;;;464223;256;1492;-44
2022/12/07 08:50:45;;;;;;;;;;;21.70;36.50;;;;;;464305;256;1485;-44
2022/12/07 08:52:46;;;;;;;;;;;21.70;36.40;;;;;;464343;256;1287;-44
2022/12/07 08:54:48;;;;;;;;;;;21.70;36.50;;;;;;464315;256;1351;-44
2022/12/07 08:56:50;;;;;;;;;;;21.70;36.50;;;;;;464430;256;1269;-43
2022/12/07 08:58:51;;;;;;;;;;;21.70;36.50;;;;;;464183;256;1675;-43
2022/12/07 09:00:52;;;;;;;;;;;21.60;36.50;;;;;;464392;256;2163;-44
2022/12/07 09:02:54;;;;;;;;;;;21.60;36.50;;;;;;464261;256;1665;-44
2022/12/07 09:04:55;;;;;;;;;;;21.60;36.50;;;;;;464473;256;1443;-44
2022/12/07 09:06:57;;;;;;;;;;;21.60;36.40;;;;;;464383;256;1383;-42
2022/12/07 09:08:58;;;;;;;;;;;21.70;36.50;;;;;;464303;256;1417;-41
2022/12/07 09:10:59;;;;;;;;;;;21.60;36.50;;;;;;464548;256;2421;-43
2022/12/07 09:13:01;;;;;;;;;;;21.60;36.40;;;;;;464555;256;2900;-43
2022/12/07 09:15:03;;;;;;;;;;;21.60;36.50;;;;;;464674;256;1296;-44
2022/12/07 09:17:04;;;;;;;;;;;21.60;36.40;;;;;;464773;256;1349;-40
2022/12/07 09:19:06;;;;;;;;;;;21.60;36.50;;;;;;464460;256;1984;-44
2022/12/07 09:21:07;;;;;;;;;;;21.60;36.40;;;;;;464486;256;2179;-44
2022/12/07 09:23:09;;;;;;;;;;;21.60;36.40;;;;;;464473;256;1213;-44
2022/12/07 09:25:10;;;;;;;;;;;21.60;36.50;;;;;;464663;256;1325;-43
2022/12/07 09:27:11;;;;;;;;;;;21.60;36.40;;;;;;464363;256;1319;-44
2022/12/07 09:29:13;;;;;;;;;;;21.60;36.40;;;;;;464482;256;1499;-44
2022/12/07 09:31:14;;;;;;;;;;;21.60;36.40;;;;;;464595;256;1385;-43
2022/12/07 09:33:16;;;;;;;;;;;21.70;36.30;;;;;;464610;256;1249;-44
2022/12/07 09:35:17;;;;;;;;;;;21.90;36.00;;;;;;464483;256;1436;-44
2022/12/07 09:37:18;;;;;;;;;;;22.10;35.70;;;;;;464576;256;1889;-44
2022/12/07 09:39:19;;;;;;;;;;;22.30;35.40;;;;;;464352;256;1364;-44
2022/12/07 09:41:21;;;;;;;;;;;22.30;35.10;;;;;;464423;256;2214;-44
2022/12/07 09:43:22;;;;;;;;;;;22.40;35.00;;;;;;464496;256;1657;-44
2022/12/07 09:45:24;;;;;;;;;;;22.50;34.90;;;;;;464018;256;1312;-44
2022/12/07 09:47:25;;;;;;;;;;;22.40;35.20;;;;;;464072;256;1263;-41
2022/12/07 09:49:27;;;;;;;;;;;22.30;35.20;;;;;;464100;256;1273;-44
2022/12/07 09:51:28;;;;;;;;;;;22.10;35.40;;;;;;464229;257;2212;-43
2022/12/07 09:53:29;;;;;;;;;;;22.00;35.50;;;;;;464470;256;1410;-43
2022/12/07 09:55:30;;;;;;;;;;;22.00;35.70;;;;;;464103;256;1828;-44
2022/12/07 09:57:34;;;;;;;;;;;21.90;35.80;;;;;;464324;256;1354;-43
2022/12/07 09:59:33;;;;;;;;;;;21.90;35.90;;;;;;464106;256;1901;-44
2022/12/07 10:01:35;;;;;;;;;;;21.80;35.90;;;;;;464365;256;2169;-42
2022/12/07 10:03:36;;;;;;;;;;;21.90;36.00;;;;;;464405;256;1265;-44
2022/12/07 10:05:38;;;;;;;;;;;21.80;35.90;;;;;;464477;256;1338;-43
2022/12/07 10:07:39;;;;;;;;;;;21.80;36.00;;;;;;464485;256;1263;-40
2022/12/07 10:09:40;;;;;;;;;;;21.80;36.00;;;;;;464510;256;1520;-44
2022/12/07 10:11:42;;;;;;;;;;;21.80;36.00;;;;;;464213;256;1318;-41
2022/12/07 10:13:44;;;;;;;;;;;21.70;36.00;;;;;;464137;256;1333;-40
2022/12/07 10:15:45;;;;;;;;;;;21.80;36.00;;;;;;464274;257;1581;-44
2022/12/07 10:17:46;;;;;;;;;;;21.80;36.00;;;;;;464288;256;1280;-44
2022/12/07 10:19:48;;;;;;;;;;;21.80;36.00;;;;;;464367;256;1270;-43
2022/12/07 10:21:50;;;;;;;;;;;21.80;36.00;;;;;;464266;256;2225;-43
2022/12/07 10:23:51;;;;;;;;;;;21.70;36.00;;;;;;464516;256;1260;-40
2022/12/07 10:25:54;;;;;;;;;;;21.70;36.00;;;;;;464501;256;1374;-40
2022/12/07 10:27:54;;;;;;;;;;;21.70;36.00;;;;;;464287;256;1476;-44
2022/12/07 10:29:57;;;;;;;;;;;21.70;36.00;;;;;;464413;256;1470;-44
2022/12/07 10:31:57;;;;;;;;;;;21.70;36.00;;;;;;464383;256;1670;-44
2022/12/07 10:33:58;;;;;;;;;;;21.70;36.00;;;;;;464325;256;1343;-44
2022/12/07 10:36:00;;;;;;;;;;;21.70;36.00;;;;;;464452;256;1300;-41
2022/12/07 10:38:01;;;;;;;;;;;21.70;36.00;;;;;;464546;256;1500;-44
2022/12/07 10:40:02;;;;;;;;;;;21.70;36.00;;;;;;464523;256;1301;-44
2022/12/07 10:42:05;;;;;;;;;;;21.70;35.90;;;;;;464488;256;2219;-43
2022/12/07 10:44:05;;;;;;;;;;;21.70;35.90;;;;;;464495;256;1735;-44
2022/12/07 10:46:06;;;;;;;;;;;21.70;35.90;;;;;;464454;257;1774;-42
2022/12/07 10:48:08;;;;;;;;;;;21.70;36.00;;;;;;464407;256;1242;-44
2022/12/07 10:50:09;;;;;;;;;;;21.70;35.90;;;;;;464471;256;1285;-42
2022/12/07 10:52:11;;;;;;;;;;;21.70;36.00;;;;;;464574;256;1675;-43
2022/12/07 10:54:14;;;;;;;;;;;21.70;36.00;;;;;;464648;256;1588;-40
2022/12/07 10:56:14;;;;;;;;;;;21.70;35.90;;;;;;464682;256;1836;-43
2022/12/07 10:58:15;;;;;;;;;;;21.90;35.70;;;;;;464531;256;1590;-45
2022/12/07 11:00:16;;;;;;;;;;;22.10;35.20;;;;;;464478;256;1328;-41
2022/12/07 11:02:18;;;;;;;;;;;22.20;35.00;;;;;;464486;256;2228;-44
2022/12/07 11:04:19;;;;;;;;;;;22.40;34.80;;;;;;464402;256;1310;-44
2022/12/07 11:06:20;;;;;;;;;;;22.40;34.60;;;;;;464381;256;1382;-44
2022/12/07 11:08:22;;;;;;;;;;;22.40;34.50;;;;;;464400;256;1298;-44
2022/12/07 11:10:24;;;;;;;;;;;22.30;34.80;;;;;;464359;256;1332;-43
2022/12/07 11:12:25;;;;;;;;;;;22.20;34.90;;;;;;464397;256;1259;-44
2022/12/07 11:14:26;;;;;;;;;;;22.10;35.10;;;;;;464606;256;1312;-44
2022/12/07 11:16:28;;;;;;;;;;;22.00;35.20;;;;;;464341;256;1401;-43
2022/12/07 11:18:30;;;;;;;;;;;22.00;35.30;;;;;;464452;256;1273;-45
2022/12/07 11:20:34;;;;;;;;;;;21.90;35.30;;;;;;464447;256;1689;-44
2022/12/07 11:22:36;;;;;;;;;;;21.90;35.40;;;;;;464030;257;1541;-44
2022/12/07 11:24:37;;;;;;;;;;;21.90;35.40;;;;;;464484;256;1208;-43
2022/12/07 11:26:38;;;;;;;;;;;21.90;35.40;;;;;;464303;256;2218;-44
2022/12/07 11:28:40;;;;;;;;;;;21.90;35.40;;;;;;464370;256;1308;-44
2022/12/07 11:30:41;;;;;;;;;;;21.90;35.40;;;;;;464457;256;1435;-43
2022/12/07 11:32:42;;;;;;;;;;;21.90;35.40;;;;;;464545;256;1408;-43
2022/12/07 11:34:45;;;;;;;;;;;21.80;35.40;;;;;;464363;256;1306;-40
2022/12/07 11:36:46;;;;;;;;;;;21.80;35.40;;;;;;464381;256;1342;-44
2022/12/07 11:38:47;;;;;;;;;;;21.80;35.40;;;;;;464454;256;1813;-44
2022/12/07 11:40:49;;;;;;;;;;;21.80;35.50;;;;;;464422;256;2148;-40
2022/12/07 11:42:51;;;;;;;;;;;21.80;35.40;;;;;;464489;256;1567;-44
2022/12/07 11:44:52;;;;;;;;;;;21.80;35.40;;;;;;464597;256;2140;-44
2022/12/07 11:46:53;;;;;;;;;;;21.80;35.40;;;;;;464288;256;1340;-44
2022/12/07 11:48:55;;;;;;;;;;;21.90;35.40;;;;;;464244;256;1196;-41
2022/12/07 11:50:56;;;;;;;;;;;21.80;35.40;;;;;;464393;256;1351;-44
2022/12/07 11:52:58;;;;;;;;;;;21.80;35.40;;;;;;464332;256;1254;-44
2022/12/07 11:54:59;;;;;;;;;;;21.80;35.30;;;;;;464508;256;1424;-43
2022/12/07 11:57:00;;;;;;;;;;;21.80;35.40;;;;;;464518;256;2730;-44
2022/12/07 11:59:04;;;;;;;;;;;21.80;35.30;;;;;;464336;256;1556;-44